sensor_id;sensor_type;location;lat;lon;timestamp;P1;durP1;ratioP1;P2;durP2;ratioP2
71814;SDS011;59659;41.520;23.794;2023-04-24T00:00:48;6.47;;;4.53;;
71814;SDS011;59659;41.520;23.794;2023-04-24T00:02:00;6.82;;;4.50;;
71814;SDS011;59659;41.520;23.794;2023-04-24T00:03:12;6.53;;;3.97;;
71814;SDS011;59659;41.520;23.794;2023-04-24T00:04:24;5.68;;;3.63;;
71814;SDS011;59659;41.520;23.794;2023-04-24T00:05:37;5.50;;;4.45;;
71814;SDS011;59659;41.520;23.794;2023-04-24T00:06:48;8.07;;;5.10;;
71814;SDS011;59659;41.520;23.794;2023-04-24T00:08:05;7.53;;;4.25;;
71814;SDS011;59659;41.520;23.794;2023-04-24T00:09:17;6.95;;;4.05;;
71814;SDS011;59659;41.520;23.794;2023-04-24T00:10:29;4.95;;;3.75;;
71814;SDS011;59659;41.520;23.794;2023-04-24T00:11:41;6.25;;;4.07;;
71814;SDS011;59659;41.520;23.794;2023-04-24T00:12:52;6.18;;;3.67;;
71814;SDS011;59659;41.520;23.794;2023-04-24T00:14:04;7.90;;;4.22;;
71814;SDS011;59659;41.520;23.794;2023-04-24T00:15:15;6.45;;;3.70;;
71814;SDS011;59659;41.520;23.794;2023-04-24T00:16:27;8.52;;;4.60;;
71814;SDS011;59659;41.520;23.794;2023-04-24T00:17:39;6.97;;;4.20;;
71814;SDS011;59659;41.520;23.794;2023-04-24T00:18:50;7.15;;;3.90;;
71814;SDS011;59659;41.520;23.794;2023-04-24T00:20:04;6.75;;;4.43;;
71814;SDS011;59659;41.520;23.794;2023-04-24T00:21:18;7.22;;;4.25;;
71814;SDS011;59659;41.520;23.794;2023-04-24T00:22:29;9.50;;;4.20;;
71814;SDS011;59659;41.520;23.794;2023-04-24T00:23:41;7.10;;;4.50;;
71814;SDS011;59659;41.520;23.794;2023-04-24T00:24:52;7.50;;;4.93;;
71814;SDS011;59659;41.520;23.794;2023-04-24T00:26:04;9.32;;;4.72;;
71814;SDS011;59659;41.520;23.794;2023-04-24T00:27:15;5.43;;;4.10;;
71814;SDS011;59659;41.520;23.794;2023-04-24T00:28:27;11.00;;;4.43;;
71814;SDS011;59659;41.520;23.794;2023-04-24T00:29:38;7.25;;;4.18;;
71814;SDS011;59659;41.520;23.794;2023-04-24T00:30:50;6.60;;;4.95;;
71814;SDS011;59659;41.520;23.794;2023-04-24T00:32:02;6.15;;;3.78;;
71814;SDS011;59659;41.520;23.794;2023-04-24T00:33:13;18.30;;;4.80;;
71814;SDS011;59659;41.520;23.794;2023-04-24T00:34:25;7.90;;;4.65;;
71814;SDS011;59659;41.520;23.794;2023-04-24T00:35:37;8.75;;;5.65;;
71814;SDS011;59659;41.520;23.794;2023-04-24T00:36:48;10.52;;;5.72;;
71814;SDS011;59659;41.520;23.794;2023-04-24T00:38:03;9.82;;;5.38;;
71814;SDS011;59659;41.520;23.794;2023-04-24T00:39:14;6.85;;;4.70;;
71814;SDS011;59659;41.520;23.794;2023-04-24T00:40:26;7.97;;;4.47;;
71814;SDS011;59659;41.520;23.794;2023-04-24T00:41:38;7.95;;;5.40;;
71814;SDS011;59659;41.520;23.794;2023-04-24T00:42:49;12.23;;;5.20;;
71814;SDS011;59659;41.520;23.794;2023-04-24T00:44:01;8.00;;;4.97;;
71814;SDS011;59659;41.520;23.794;2023-04-24T00:45:12;12.38;;;4.32;;
71814;SDS011;59659;41.520;23.794;2023-04-24T00:46:24;7.05;;;4.30;;
71814;SDS011;59659;41.520;23.794;2023-04-24T00:47:36;8.02;;;4.47;;
71814;SDS011;59659;41.520;23.794;2023-04-24T00:48:47;5.13;;;3.17;;
71814;SDS011;59659;41.520;23.794;2023-04-24T00:50:01;7.43;;;4.43;;
71814;SDS011;59659;41.520;23.794;2023-04-24T00:51:13;6.38;;;3.72;;
71814;SDS011;59659;41.520;23.794;2023-04-24T00:52:24;6.20;;;4.15;;
71814;SDS011;59659;41.520;23.794;2023-04-24T00:53:36;8.43;;;3.83;;
71814;SDS011;59659;41.520;23.794;2023-04-24T00:54:48;7.03;;;4.05;;
71814;SDS011;59659;41.520;23.794;2023-04-24T00:55:59;7.32;;;3.70;;
71814;SDS011;59659;41.520;23.794;2023-04-24T00:57:11;11.40;;;4.57;;
71814;SDS011;59659;41.520;23.794;2023-04-24T00:58:23;5.85;;;3.63;;
71814;SDS011;59659;41.520;23.794;2023-04-24T00:59:35;7.65;;;4.45;;
71814;SDS011;59659;41.520;23.794;2023-04-24T01:00:48;7.28;;;4.00;;
71814;SDS011;59659;41.520;23.794;2023-04-24T01:02:00;8.80;;;4.95;;
71814;SDS011;59659;41.520;23.794;2023-04-24T01:03:11;7.78;;;4.75;;
71814;SDS011;59659;41.520;23.794;2023-04-24T01:04:24;9.20;;;4.22;;
71814;SDS011;59659;41.520;23.794;2023-04-24T01:05:36;7.57;;;4.22;;
71814;SDS011;59659;41.520;23.794;2023-04-24T01:06:47;7.60;;;4.72;;
71814;SDS011;59659;41.520;23.794;2023-04-24T01:08:02;13.45;;;4.00;;
71814;SDS011;59659;41.520;23.794;2023-04-24T01:09:14;6.43;;;4.35;;
71814;SDS011;59659;41.520;23.794;2023-04-24T01:10:26;6.15;;;4.30;;
71814;SDS011;59659;41.520;23.794;2023-04-24T01:11:38;7.80;;;3.92;;
71814;SDS011;59659;41.520;23.794;2023-04-24T01:12:52;7.88;;;4.38;;
71814;SDS011;59659;41.520;23.794;2023-04-24T01:14:04;10.07;;;5.00;;
71814;SDS011;59659;41.520;23.794;2023-04-24T01:15:15;7.82;;;4.70;;
71814;SDS011;59659;41.520;23.794;2023-04-24T01:16:27;7.32;;;4.43;;
71814;SDS011;59659;41.520;23.794;2023-04-24T01:17:38;7.50;;;4.72;;
71814;SDS011;59659;41.520;23.794;2023-04-24T01:18:50;10.27;;;4.82;;
71814;SDS011;59659;41.520;23.794;2023-04-24T01:20:02;8.20;;;4.38;;
71814;SDS011;59659;41.520;23.794;2023-04-24T01:21:17;6.50;;;4.30;;
71814;SDS011;59659;41.520;23.794;2023-04-24T01:22:29;8.30;;;4.53;;
71814;SDS011;59659;41.520;23.794;2023-04-24T01:23:40;7.13;;;4.28;;
71814;SDS011;59659;41.520;23.794;2023-04-24T01:24:52;7.57;;;4.00;;
71814;SDS011;59659;41.520;23.794;2023-04-24T01:26:04;6.55;;;4.60;;
71814;SDS011;59659;41.520;23.794;2023-04-24T01:27:15;9.55;;;4.53;;
71814;SDS011;59659;41.520;23.794;2023-04-24T01:28:27;10.18;;;4.55;;
71814;SDS011;59659;41.520;23.794;2023-04-24T01:29:39;8.15;;;3.80;;
71814;SDS011;59659;41.520;23.794;2023-04-24T01:30:50;9.13;;;4.50;;
71814;SDS011;59659;41.520;23.794;2023-04-24T01:32:03;8.45;;;4.80;;
71814;SDS011;59659;41.520;23.794;2023-04-24T01:33:14;6.63;;;3.88;;
71814;SDS011;59659;41.520;23.794;2023-04-24T01:34:26;5.55;;;4.00;;
71814;SDS011;59659;41.520;23.794;2023-04-24T01:35:38;7.97;;;3.60;;
71814;SDS011;59659;41.520;23.794;2023-04-24T01:36:49;4.72;;;3.50;;
71814;SDS011;59659;41.520;23.794;2023-04-24T01:38:01;6.22;;;4.47;;
71814;SDS011;59659;41.520;23.794;2023-04-24T01:39:13;6.55;;;3.88;;
71814;SDS011;59659;41.520;23.794;2023-04-24T01:40:25;7.88;;;4.40;;
71814;SDS011;59659;41.520;23.794;2023-04-24T01:41:36;7.28;;;4.57;;
71814;SDS011;59659;41.520;23.794;2023-04-24T01:42:48;10.07;;;4.82;;
71814;SDS011;59659;41.520;23.794;2023-04-24T01:44:00;7.57;;;4.30;;
71814;SDS011;59659;41.520;23.794;2023-04-24T01:45:12;5.57;;;3.80;;
71814;SDS011;59659;41.520;23.794;2023-04-24T01:46:24;6.93;;;4.05;;
71814;SDS011;59659;41.520;23.794;2023-04-24T01:47:36;8.85;;;4.78;;
71814;SDS011;59659;41.520;23.794;2023-04-24T01:48:47;8.05;;;4.10;;
71814;SDS011;59659;41.520;23.794;2023-04-24T01:49:59;6.88;;;4.28;;
71814;SDS011;59659;41.520;23.794;2023-04-24T01:51:10;7.35;;;4.00;;
71814;SDS011;59659;41.520;23.794;2023-04-24T01:52:24;6.28;;;4.18;;
71814;SDS011;59659;41.520;23.794;2023-04-24T01:53:36;7.47;;;4.65;;
71814;SDS011;59659;41.520;23.794;2023-04-24T01:54:48;12.43;;;6.32;;
71814;SDS011;59659;41.520;23.794;2023-04-24T01:55:59;16.30;;;7.93;;
71814;SDS011;59659;41.520;23.794;2023-04-24T01:57:11;15.95;;;8.35;;
71814;SDS011;59659;41.520;23.794;2023-04-24T01:58:23;19.02;;;10.45;;
71814;SDS011;59659;41.520;23.794;2023-04-24T01:59:34;22.83;;;10.07;;
71814;SDS011;59659;41.520;23.794;2023-04-24T02:00:47;22.40;;;10.23;;
71814;SDS011;59659;41.520;23.794;2023-04-24T02:01:59;17.42;;;8.35;;
71814;SDS011;59659;41.520;23.794;2023-04-24T02:03:10;13.30;;;7.38;;
71814;SDS011;59659;41.520;23.794;2023-04-24T02:04:22;9.75;;;5.70;;
71814;SDS011;59659;41.520;23.794;2023-04-24T02:05:33;9.88;;;6.07;;
71814;SDS011;59659;41.520;23.794;2023-04-24T02:06:45;10.57;;;6.00;;
71814;SDS011;59659;41.520;23.794;2023-04-24T02:07:57;9.10;;;5.57;;
71814;SDS011;59659;41.520;23.794;2023-04-24T02:09:08;13.98;;;6.72;;
71814;SDS011;59659;41.520;23.794;2023-04-24T02:10:19;11.38;;;6.63;;
71814;SDS011;59659;41.520;23.794;2023-04-24T02:11:31;27.00;;;9.10;;
71814;SDS011;59659;41.520;23.794;2023-04-24T02:12:42;24.02;;;9.32;;
71814;SDS011;59659;41.520;23.794;2023-04-24T02:13:54;15.77;;;7.93;;
71814;SDS011;59659;41.520;23.794;2023-04-24T02:15:05;11.90;;;5.78;;
71814;SDS011;59659;41.520;23.794;2023-04-24T02:16:17;9.95;;;5.43;;
71814;SDS011;59659;41.520;23.794;2023-04-24T02:17:29;12.60;;;6.15;;
71814;SDS011;59659;41.520;23.794;2023-04-24T02:18:41;10.80;;;5.68;;
71814;SDS011;59659;41.520;23.794;2023-04-24T02:19:53;11.63;;;4.95;;
71814;SDS011;59659;41.520;23.794;2023-04-24T02:21:04;7.40;;;4.43;;
71814;SDS011;59659;41.520;23.794;2023-04-24T02:22:16;5.80;;;4.40;;
71814;SDS011;59659;41.520;23.794;2023-04-24T02:23:28;6.97;;;4.45;;
71814;SDS011;59659;41.520;23.794;2023-04-24T02:24:39;7.30;;;4.50;;
71814;SDS011;59659;41.520;23.794;2023-04-24T02:25:51;9.60;;;5.45;;
71814;SDS011;59659;41.520;23.794;2023-04-24T02:27:04;8.02;;;4.60;;
71814;SDS011;59659;41.520;23.794;2023-04-24T02:28:16;8.20;;;4.70;;
71814;SDS011;59659;41.520;23.794;2023-04-24T02:29:27;8.65;;;5.53;;
71814;SDS011;59659;41.520;23.794;2023-04-24T02:30:39;10.10;;;4.55;;
71814;SDS011;59659;41.520;23.794;2023-04-24T02:31:50;10.43;;;4.88;;
71814;SDS011;59659;41.520;23.794;2023-04-24T02:33:01;7.22;;;4.80;;
71814;SDS011;59659;41.520;23.794;2023-04-24T02:34:14;8.32;;;5.22;;
71814;SDS011;59659;41.520;23.794;2023-04-24T02:35:25;7.78;;;5.18;;
71814;SDS011;59659;41.520;23.794;2023-04-24T02:36:37;7.63;;;4.93;;
71814;SDS011;59659;41.520;23.794;2023-04-24T02:37:48;10.35;;;4.70;;
71814;SDS011;59659;41.520;23.794;2023-04-24T02:39:00;6.95;;;4.45;;
71814;SDS011;59659;41.520;23.794;2023-04-24T02:40:12;7.22;;;4.75;;
71814;SDS011;59659;41.520;23.794;2023-04-24T02:41:23;7.60;;;3.90;;
71814;SDS011;59659;41.520;23.794;2023-04-24T02:42:35;9.75;;;4.75;;
71814;SDS011;59659;41.520;23.794;2023-04-24T02:43:47;7.30;;;4.25;;
71814;SDS011;59659;41.520;23.794;2023-04-24T02:44:58;5.80;;;3.97;;
71814;SDS011;59659;41.520;23.794;2023-04-24T02:46:10;6.68;;;4.40;;
71814;SDS011;59659;41.520;23.794;2023-04-24T02:47:21;6.13;;;4.00;;
71814;SDS011;59659;41.520;23.794;2023-04-24T02:48:33;7.18;;;3.80;;
71814;SDS011;59659;41.520;23.794;2023-04-24T02:49:44;9.10;;;4.53;;
71814;SDS011;59659;41.520;23.794;2023-04-24T02:50:56;5.82;;;3.90;;
71814;SDS011;59659;41.520;23.794;2023-04-24T02:52:08;7.53;;;4.22;;
71814;SDS011;59659;41.520;23.794;2023-04-24T02:53:20;8.00;;;4.47;;
71814;SDS011;59659;41.520;23.794;2023-04-24T02:54:31;9.90;;;4.88;;
71814;SDS011;59659;41.520;23.794;2023-04-24T02:55:42;8.90;;;5.18;;
71814;SDS011;59659;41.520;23.794;2023-04-24T02:56:54;11.13;;;4.25;;
71814;SDS011;59659;41.520;23.794;2023-04-24T02:58:06;5.88;;;3.67;;
71814;SDS011;59659;41.520;23.794;2023-04-24T02:59:17;8.60;;;4.43;;
71814;SDS011;59659;41.520;23.794;2023-04-24T03:00:29;8.57;;;4.63;;
71814;SDS011;59659;41.520;23.794;2023-04-24T03:01:41;6.97;;;4.03;;
71814;SDS011;59659;41.520;23.794;2023-04-24T03:02:52;6.55;;;4.10;;
71814;SDS011;59659;41.520;23.794;2023-04-24T03:04:04;8.43;;;4.15;;
71814;SDS011;59659;41.520;23.794;2023-04-24T03:05:16;70.57;;;22.13;;
71814;SDS011;59659;41.520;23.794;2023-04-24T03:06:28;37.30;;;15.38;;
71814;SDS011;59659;41.520;23.794;2023-04-24T03:07:39;13.25;;;7.38;;
71814;SDS011;59659;41.520;23.794;2023-04-24T03:08:51;11.52;;;5.90;;
71814;SDS011;59659;41.520;23.794;2023-04-24T03:10:03;21.25;;;10.20;;
71814;SDS011;59659;41.520;23.794;2023-04-24T03:11:14;24.17;;;10.07;;
71814;SDS011;59659;41.520;23.794;2023-04-24T03:12:26;11.18;;;6.57;;
71814;SDS011;59659;41.520;23.794;2023-04-24T03:13:37;5.80;;;4.18;;
71814;SDS011;59659;41.520;23.794;2023-04-24T03:14:49;6.97;;;4.95;;
71814;SDS011;59659;41.520;23.794;2023-04-24T03:16:00;7.30;;;4.60;;
71814;SDS011;59659;41.520;23.794;2023-04-24T03:17:12;9.68;;;5.43;;
71814;SDS011;59659;41.520;23.794;2023-04-24T03:18:23;6.40;;;3.90;;
71814;SDS011;59659;41.520;23.794;2023-04-24T03:19:35;6.35;;;3.88;;
71814;SDS011;59659;41.520;23.794;2023-04-24T03:20:46;7.00;;;4.10;;
71814;SDS011;59659;41.520;23.794;2023-04-24T03:21:58;6.43;;;3.70;;
71814;SDS011;59659;41.520;23.794;2023-04-24T03:23:09;5.85;;;3.90;;
71814;SDS011;59659;41.520;23.794;2023-04-24T03:24:21;5.25;;;3.88;;
71814;SDS011;59659;41.520;23.794;2023-04-24T03:25:33;9.02;;;4.85;;
71814;SDS011;59659;41.520;23.794;2023-04-24T03:26:45;5.82;;;3.83;;
71814;SDS011;59659;41.520;23.794;2023-04-24T03:27:56;11.02;;;5.05;;
71814;SDS011;59659;41.520;23.794;2023-04-24T03:29:08;5.22;;;3.83;;
71814;SDS011;59659;41.520;23.794;2023-04-24T03:30:19;5.82;;;4.03;;
71814;SDS011;59659;41.520;23.794;2023-04-24T03:31:30;7.43;;;4.20;;
71814;SDS011;59659;41.520;23.794;2023-04-24T03:32:42;11.70;;;4.72;;
71814;SDS011;59659;41.520;23.794;2023-04-24T03:33:54;6.30;;;4.43;;
71814;SDS011;59659;41.520;23.794;2023-04-24T03:35:08;7.93;;;4.07;;
71814;SDS011;59659;41.520;23.794;2023-04-24T03:36:20;13.20;;;4.05;;
71814;SDS011;59659;41.520;23.794;2023-04-24T03:37:31;7.18;;;4.40;;
71814;SDS011;59659;41.520;23.794;2023-04-24T03:38:43;7.30;;;4.95;;
71814;SDS011;59659;41.520;23.794;2023-04-24T03:39:54;3.83;;;3.42;;
71814;SDS011;59659;41.520;23.794;2023-04-24T03:41:06;8.55;;;4.78;;
71814;SDS011;59659;41.520;23.794;2023-04-24T03:42:17;8.85;;;5.20;;
71814;SDS011;59659;41.520;23.794;2023-04-24T03:43:28;7.22;;;5.03;;
71814;SDS011;59659;41.520;23.794;2023-04-24T03:44:40;12.65;;;5.22;;
71814;SDS011;59659;41.520;23.794;2023-04-24T03:45:51;11.73;;;5.43;;
71814;SDS011;59659;41.520;23.794;2023-04-24T03:47:03;10.18;;;5.05;;
71814;SDS011;59659;41.520;23.794;2023-04-24T03:48:14;7.18;;;4.25;;
71814;SDS011;59659;41.520;23.794;2023-04-24T03:49:26;7.80;;;5.00;;
71814;SDS011;59659;41.520;23.794;2023-04-24T03:50:38;8.43;;;4.75;;
71814;SDS011;59659;41.520;23.794;2023-04-24T03:51:49;6.30;;;4.18;;
71814;SDS011;59659;41.520;23.794;2023-04-24T03:53:01;10.93;;;5.60;;
71814;SDS011;59659;41.520;23.794;2023-04-24T03:54:12;8.75;;;5.25;;
71814;SDS011;59659;41.520;23.794;2023-04-24T03:55:24;9.23;;;5.30;;
71814;SDS011;59659;41.520;23.794;2023-04-24T03:56:36;9.38;;;5.22;;
71814;SDS011;59659;41.520;23.794;2023-04-24T03:57:47;7.18;;;5.00;;
71814;SDS011;59659;41.520;23.794;2023-04-24T03:58:59;7.50;;;4.43;;
71814;SDS011;59659;41.520;23.794;2023-04-24T04:00:10;7.20;;;4.72;;
71814;SDS011;59659;41.520;23.794;2023-04-24T04:01:22;8.00;;;4.35;;
71814;SDS011;59659;41.520;23.794;2023-04-24T04:02:34;8.88;;;4.75;;
71814;SDS011;59659;41.520;23.794;2023-04-24T04:03:46;9.13;;;5.55;;
71814;SDS011;59659;41.520;23.794;2023-04-24T04:04:58;9.30;;;5.63;;
71814;SDS011;59659;41.520;23.794;2023-04-24T04:06:09;9.32;;;5.00;;
71814;SDS011;59659;41.520;23.794;2023-04-24T04:07:22;7.80;;;4.45;;
71814;SDS011;59659;41.520;23.794;2023-04-24T04:08:33;6.35;;;4.57;;
71814;SDS011;59659;41.520;23.794;2023-04-24T04:09:45;8.77;;;4.93;;
71814;SDS011;59659;41.520;23.794;2023-04-24T04:10:57;8.02;;;4.43;;
71814;SDS011;59659;41.520;23.794;2023-04-24T04:12:08;10.98;;;5.15;;
71814;SDS011;59659;41.520;23.794;2023-04-24T04:13:19;8.70;;;4.78;;
71814;SDS011;59659;41.520;23.794;2023-04-24T04:14:31;7.78;;;4.78;;
71814;SDS011;59659;41.520;23.794;2023-04-24T04:15:42;7.05;;;5.57;;
71814;SDS011;59659;41.520;23.794;2023-04-24T04:16:54;10.85;;;6.47;;
71814;SDS011;59659;41.520;23.794;2023-04-24T04:18:05;17.15;;;10.00;;
71814;SDS011;59659;41.520;23.794;2023-04-24T04:19:17;16.83;;;9.57;;
71814;SDS011;59659;41.520;23.794;2023-04-24T04:20:28;16.10;;;9.98;;
71814;SDS011;59659;41.520;23.794;2023-04-24T04:21:40;19.10;;;9.63;;
71814;SDS011;59659;41.520;23.794;2023-04-24T04:22:51;24.67;;;11.80;;
71814;SDS011;59659;41.520;23.794;2023-04-24T04:24:03;11.32;;;7.82;;
71814;SDS011;59659;41.520;23.794;2023-04-24T04:25:16;12.07;;;7.38;;
71814;SDS011;59659;41.520;23.794;2023-04-24T04:26:30;18.85;;;9.68;;
71814;SDS011;59659;41.520;23.794;2023-04-24T04:27:43;25.38;;;12.38;;
71814;SDS011;59659;41.520;23.794;2023-04-24T04:28:55;23.30;;;11.65;;
71814;SDS011;59659;41.520;23.794;2023-04-24T04:30:07;32.35;;;15.02;;
71814;SDS011;59659;41.520;23.794;2023-04-24T04:31:20;26.45;;;14.13;;
71814;SDS011;59659;41.520;23.794;2023-04-24T04:32:32;29.70;;;13.07;;
71814;SDS011;59659;41.520;23.794;2023-04-24T04:33:46;18.70;;;10.40;;
71814;SDS011;59659;41.520;23.794;2023-04-24T04:34:58;14.63;;;8.77;;
71814;SDS011;59659;41.520;23.794;2023-04-24T04:36:09;31.02;;;13.43;;
71814;SDS011;59659;41.520;23.794;2023-04-24T04:37:21;13.45;;;7.07;;
71814;SDS011;59659;41.520;23.794;2023-04-24T04:38:32;13.45;;;6.30;;
71814;SDS011;59659;41.520;23.794;2023-04-24T04:39:44;20.13;;;10.32;;
71814;SDS011;59659;41.520;23.794;2023-04-24T04:40:56;13.70;;;8.50;;
71814;SDS011;59659;41.520;23.794;2023-04-24T04:42:08;16.00;;;7.75;;
71814;SDS011;59659;41.520;23.794;2023-04-24T04:43:19;13.90;;;7.40;;
71814;SDS011;59659;41.520;23.794;2023-04-24T04:44:31;11.60;;;7.50;;
71814;SDS011;59659;41.520;23.794;2023-04-24T04:45:42;11.18;;;6.72;;
71814;SDS011;59659;41.520;23.794;2023-04-24T04:46:54;12.73;;;8.45;;
71814;SDS011;59659;41.520;23.794;2023-04-24T04:48:07;15.85;;;8.27;;
71814;SDS011;59659;41.520;23.794;2023-04-24T04:49:20;16.35;;;8.73;;
71814;SDS011;59659;41.520;23.794;2023-04-24T04:50:33;15.52;;;8.57;;
71814;SDS011;59659;41.520;23.794;2023-04-24T04:51:44;28.13;;;12.35;;
71814;SDS011;59659;41.520;23.794;2023-04-24T04:52:56;12.15;;;7.75;;
71814;SDS011;59659;41.520;23.794;2023-04-24T04:54:08;17.00;;;8.82;;
71814;SDS011;59659;41.520;23.794;2023-04-24T04:55:19;16.63;;;8.57;;
71814;SDS011;59659;41.520;23.794;2023-04-24T04:56:31;16.02;;;8.70;;
71814;SDS011;59659;41.520;23.794;2023-04-24T04:57:42;17.30;;;8.77;;
71814;SDS011;59659;41.520;23.794;2023-04-24T04:58:53;18.08;;;8.27;;
71814;SDS011;59659;41.520;23.794;2023-04-24T05:00:05;23.52;;;9.25;;
71814;SDS011;59659;41.520;23.794;2023-04-24T05:01:18;15.13;;;7.60;;
71814;SDS011;59659;41.520;23.794;2023-04-24T05:02:30;11.23;;;6.60;;
71814;SDS011;59659;41.520;23.794;2023-04-24T05:03:42;14.35;;;8.05;;
71814;SDS011;59659;41.520;23.794;2023-04-24T05:04:53;24.58;;;12.30;;
71814;SDS011;59659;41.520;23.794;2023-04-24T05:06:05;36.92;;;15.25;;
71814;SDS011;59659;41.520;23.794;2023-04-24T05:07:17;20.95;;;10.80;;
71814;SDS011;59659;41.520;23.794;2023-04-24T05:08:29;13.63;;;8.05;;
71814;SDS011;59659;41.520;23.794;2023-04-24T05:09:41;12.80;;;6.95;;
71814;SDS011;59659;41.520;23.794;2023-04-24T05:10:53;12.52;;;6.88;;
71814;SDS011;59659;41.520;23.794;2023-04-24T05:12:04;13.73;;;8.13;;
71814;SDS011;59659;41.520;23.794;2023-04-24T05:13:16;13.75;;;7.03;;
71814;SDS011;59659;41.520;23.794;2023-04-24T05:14:32;16.35;;;7.47;;
71814;SDS011;59659;41.520;23.794;2023-04-24T05:15:45;11.60;;;7.00;;
71814;SDS011;59659;41.520;23.794;2023-04-24T05:16:56;13.60;;;6.68;;
71814;SDS011;59659;41.520;23.794;2023-04-24T05:18:08;12.73;;;6.82;;
71814;SDS011;59659;41.520;23.794;2023-04-24T05:19:20;12.10;;;6.63;;
71814;SDS011;59659;41.520;23.794;2023-04-24T05:20:31;9.95;;;6.50;;
71814;SDS011;59659;41.520;23.794;2023-04-24T05:21:42;14.82;;;6.85;;
71814;SDS011;59659;41.520;23.794;2023-04-24T05:22:54;13.63;;;7.15;;
71814;SDS011;59659;41.520;23.794;2023-04-24T05:24:06;10.25;;;6.55;;
71814;SDS011;59659;41.520;23.794;2023-04-24T05:25:18;12.93;;;6.70;;
71814;SDS011;59659;41.520;23.794;2023-04-24T05:26:29;11.38;;;7.13;;
71814;SDS011;59659;41.520;23.794;2023-04-24T05:27:41;12.52;;;7.07;;
71814;SDS011;59659;41.520;23.794;2023-04-24T05:28:52;12.02;;;7.10;;
71814;SDS011;59659;41.520;23.794;2023-04-24T05:30:04;11.00;;;7.53;;
71814;SDS011;59659;41.520;23.794;2023-04-24T05:31:15;11.18;;;7.30;;
71814;SDS011;59659;41.520;23.794;2023-04-24T05:32:29;16.30;;;7.55;;
71814;SDS011;59659;41.520;23.794;2023-04-24T05:33:40;15.05;;;7.65;;
71814;SDS011;59659;41.520;23.794;2023-04-24T05:34:52;12.07;;;7.45;;
71814;SDS011;59659;41.520;23.794;2023-04-24T05:36:03;12.88;;;7.00;;
71814;SDS011;59659;41.520;23.794;2023-04-24T05:37:16;19.70;;;10.65;;
71814;SDS011;59659;41.520;23.794;2023-04-24T05:38:28;19.33;;;8.75;;
71814;SDS011;59659;41.520;23.794;2023-04-24T05:39:39;14.98;;;8.43;;
71814;SDS011;59659;41.520;23.794;2023-04-24T05:40:52;21.90;;;9.98;;
71814;SDS011;59659;41.520;23.794;2023-04-24T05:42:04;11.32;;;7.50;;
71814;SDS011;59659;41.520;23.794;2023-04-24T05:43:16;10.32;;;5.85;;
71814;SDS011;59659;41.520;23.794;2023-04-24T05:44:27;13.55;;;7.40;;
71814;SDS011;59659;41.520;23.794;2023-04-24T05:45:39;13.40;;;6.35;;
71814;SDS011;59659;41.520;23.794;2023-04-24T05:46:50;15.13;;;7.10;;
71814;SDS011;59659;41.520;23.794;2023-04-24T05:48:02;11.13;;;5.97;;
71814;SDS011;59659;41.520;23.794;2023-04-24T05:49:14;16.30;;;8.13;;
71814;SDS011;59659;41.520;23.794;2023-04-24T05:50:25;18.13;;;7.82;;
71814;SDS011;59659;41.520;23.794;2023-04-24T05:51:37;12.07;;;6.30;;
71814;SDS011;59659;41.520;23.794;2023-04-24T05:52:50;11.75;;;6.75;;
71814;SDS011;59659;41.520;23.794;2023-04-24T05:54:02;17.27;;;7.72;;
71814;SDS011;59659;41.520;23.794;2023-04-24T05:55:14;11.18;;;6.55;;
71814;SDS011;59659;41.520;23.794;2023-04-24T05:56:28;15.02;;;7.80;;
71814;SDS011;59659;41.520;23.794;2023-04-24T05:57:40;11.80;;;6.43;;
71814;SDS011;59659;41.520;23.794;2023-04-24T05:58:51;14.27;;;7.82;;
71814;SDS011;59659;41.520;23.794;2023-04-24T06:00:03;11.02;;;7.00;;
71814;SDS011;59659;41.520;23.794;2023-04-24T06:01:15;13.15;;;7.45;;
71814;SDS011;59659;41.520;23.794;2023-04-24T06:02:27;10.55;;;6.45;;
71814;SDS011;59659;41.520;23.794;2023-04-24T06:03:39;13.30;;;7.10;;
71814;SDS011;59659;41.520;23.794;2023-04-24T06:04:51;18.17;;;8.63;;
71814;SDS011;59659;41.520;23.794;2023-04-24T06:06:03;17.20;;;8.70;;
71814;SDS011;59659;41.520;23.794;2023-04-24T06:07:14;11.20;;;6.75;;
71814;SDS011;59659;41.520;23.794;2023-04-24T06:08:26;12.95;;;6.88;;
71814;SDS011;59659;41.520;23.794;2023-04-24T06:09:38;9.68;;;5.85;;
71814;SDS011;59659;41.520;23.794;2023-04-24T06:10:49;12.63;;;6.57;;
71814;SDS011;59659;41.520;23.794;2023-04-24T06:12:01;21.38;;;9.70;;
71814;SDS011;59659;41.520;23.794;2023-04-24T06:13:12;10.18;;;5.90;;
71814;SDS011;59659;41.520;23.794;2023-04-24T06:14:24;11.60;;;5.97;;
71814;SDS011;59659;41.520;23.794;2023-04-24T06:15:35;14.85;;;8.07;;
71814;SDS011;59659;41.520;23.794;2023-04-24T06:16:47;12.10;;;6.32;;
71814;SDS011;59659;41.520;23.794;2023-04-24T06:18:00;13.40;;;6.97;;
71814;SDS011;59659;41.520;23.794;2023-04-24T06:19:12;13.00;;;7.20;;
71814;SDS011;59659;41.520;23.794;2023-04-24T06:20:23;10.52;;;6.78;;
71814;SDS011;59659;41.520;23.794;2023-04-24T06:21:35;13.35;;;6.50;;
71814;SDS011;59659;41.520;23.794;2023-04-24T06:22:46;13.82;;;7.30;;
71814;SDS011;59659;41.520;23.794;2023-04-24T06:23:58;13.20;;;6.32;;
71814;SDS011;59659;41.520;23.794;2023-04-24T06:25:09;9.88;;;6.60;;
71814;SDS011;59659;41.520;23.794;2023-04-24T06:26:21;8.77;;;5.80;;
71814;SDS011;59659;41.520;23.794;2023-04-24T06:27:33;10.23;;;6.60;;
71814;SDS011;59659;41.520;23.794;2023-04-24T06:28:45;11.82;;;6.90;;
71814;SDS011;59659;41.520;23.794;2023-04-24T06:29:56;9.65;;;6.00;;
71814;SDS011;59659;41.520;23.794;2023-04-24T06:31:08;9.48;;;6.53;;
71814;SDS011;59659;41.520;23.794;2023-04-24T06:32:21;9.23;;;5.82;;
71814;SDS011;59659;41.520;23.794;2023-04-24T06:33:32;7.57;;;4.97;;
71814;SDS011;59659;41.520;23.794;2023-04-24T06:34:44;9.60;;;5.80;;
71814;SDS011;59659;41.520;23.794;2023-04-24T06:35:55;13.13;;;6.60;;
71814;SDS011;59659;41.520;23.794;2023-04-24T06:37:07;10.88;;;6.32;;
71814;SDS011;59659;41.520;23.794;2023-04-24T06:38:19;10.95;;;6.43;;
71814;SDS011;59659;41.520;23.794;2023-04-24T06:39:30;9.55;;;6.18;;
71814;SDS011;59659;41.520;23.794;2023-04-24T06:40:42;10.38;;;6.28;;
71814;SDS011;59659;41.520;23.794;2023-04-24T06:41:56;9.15;;;5.15;;
71814;SDS011;59659;41.520;23.794;2023-04-24T06:43:07;8.38;;;5.30;;
71814;SDS011;59659;41.520;23.794;2023-04-24T06:44:19;10.35;;;5.53;;
71814;SDS011;59659;41.520;23.794;2023-04-24T06:45:30;11.52;;;8.30;;
71814;SDS011;59659;41.520;23.794;2023-04-24T06:46:42;13.75;;;6.50;;
71814;SDS011;59659;41.520;23.794;2023-04-24T06:47:53;8.07;;;6.00;;
71814;SDS011;59659;41.520;23.794;2023-04-24T06:49:05;17.10;;;6.43;;
71814;SDS011;59659;41.520;23.794;2023-04-24T06:50:17;10.25;;;6.32;;
71814;SDS011;59659;41.520;23.794;2023-04-24T06:51:28;9.35;;;5.07;;
71814;SDS011;59659;41.520;23.794;2023-04-24T06:52:40;9.48;;;5.85;;
71814;SDS011;59659;41.520;23.794;2023-04-24T06:53:52;11.63;;;6.60;;
71814;SDS011;59659;41.520;23.794;2023-04-24T06:55:04;9.13;;;6.07;;
71814;SDS011;59659;41.520;23.794;2023-04-24T06:56:15;7.93;;;5.40;;
71814;SDS011;59659;41.520;23.794;2023-04-24T06:57:27;12.93;;;6.13;;
71814;SDS011;59659;41.520;23.794;2023-04-24T06:58:38;16.57;;;6.00;;
71814;SDS011;59659;41.520;23.794;2023-04-24T06:59:50;9.27;;;4.73;;
71814;SDS011;59659;41.520;23.794;2023-04-24T07:01:01;9.53;;;5.73;;
71814;SDS011;59659;41.520;23.794;2023-04-24T07:02:13;8.80;;;5.53;;
71814;SDS011;59659;41.520;23.794;2023-04-24T07:03:24;9.10;;;5.30;;